Time;durP1;ratioP1;P1;durP2;ratioP2;P2;SDS_P1;SDS_P2;PMS_P1;PMS_P2;Temp;Humidity;BMP_temperature;BMP_pressure;BME280_temperature;BME280_humidity;BME280_pressure;Samples;Min_cycle;Max_cycle;Signal;HPM_P1;HPM_P2
2022/10/29 00:00:55;;;;;;;4.40;3.30;;;17.30;99.90;;;17.82;nan;101253.63;5010216;28;20620;-66
2022/10/29 00:03:22;;;;;;;4.50;3.80;;;17.30;99.90;;;17.74;nan;101266.66;5012137;28;20617;-65
2022/10/29 00:06:02;;;;;;;4.93;3.80;;;17.20;99.90;;;17.68;nan;101267.22;5010735;28;20669;-65
2022/10/29 00:08:31;;;;;;;8.17;3.60;;;17.10;99.90;;;17.69;nan;101266.28;5010404;28;20971;-65
2022/10/29 00:11:12;;;;;;;8.50;4.10;;;17.10;99.90;;;17.58;nan;101261.97;4988660;28;20642;-66
2022/10/29 00:13:39;;;;;;;8.13;4.73;;;17.10;99.90;;;17.57;nan;101262.09;5002890;28;21516;-65
2022/10/29 00:16:19;;;;;;;8.83;4.47;;;17.00;99.90;;;17.54;nan;101257.13;5010441;28;20672;-65
2022/10/29 00:18:47;;;;;;;10.70;4.50;;;17.00;99.90;;;17.63;nan;101259.72;4992757;28;20712;-65
2022/10/29 00:21:17;;;;;;;6.13;3.83;;;17.00;99.90;;;17.66;nan;101269.19;5010846;28;20638;-65
2022/10/29 00:23:45;;;;;;;9.20;4.50;;;17.00;99.90;;;17.65;nan;101270.16;5010647;28;20625;-65
2022/10/29 00:26:13;;;;;;;10.17;4.23;;;17.00;99.90;;;17.64;nan;101271.13;5010989;28;21233;-64
2022/10/29 00:28:41;;;;;;;6.97;3.97;;;17.00;99.90;;;17.67;nan;101276.97;5010693;28;20645;-65
2022/10/29 00:31:12;;;;;;;13.73;4.20;;;17.00;99.90;;;17.64;nan;101266.69;5012699;28;21009;-64
2022/10/29 00:33:39;;;;;;;6.50;3.70;;;17.00;99.90;;;17.64;nan;101263.22;5009230;28;20633;-65
2022/10/29 00:36:17;;;;;;;10.30;4.60;;;17.00;99.90;;;17.61;nan;101256.41;4986375;28;20699;-65
2022/10/29 00:38:44;;;;;;;6.57;3.97;;;16.90;99.90;;;17.61;nan;101264.31;5006951;28;20643;-65
2022/10/29 00:41:15;;;;;;;4.90;3.80;;;17.00;99.90;;;17.59;nan;101262.81;5013770;28;20670;-65
2022/10/29 00:43:48;;;;;;;8.47;4.57;;;17.00;99.90;;;17.55;nan;101267.53;5014911;28;20617;-64
2022/10/29 00:46:30;;;;;;;5.90;4.10;;;16.90;99.90;;;17.58;nan;101271.69;5012534;28;20688;-64
2022/10/29 00:48:59;;;;;;;9.20;3.77;;;16.90;99.90;;;17.42;nan;101276.69;5013440;28;20994;-65
2022/10/29 00:51:29;;;;;;;11.40;4.60;;;16.80;99.90;;;17.38;nan;101269.97;4994114;28;20629;-65
2022/10/29 00:54:05;;;;;;;8.27;4.27;;;16.80;99.90;;;17.44;nan;101275.53;4995875;28;21192;-66
2022/10/29 00:56:39;;;;;;;6.57;3.70;;;16.80;99.90;;;17.39;nan;101276.94;4994617;28;20770;-65
2022/10/29 00:59:07;;;;;;;7.20;3.90;;;16.80;99.90;;;17.38;nan;101283.16;5009327;28;20637;-65
2022/10/29 01:01:35;;;;;;;11.90;5.23;;;16.70;99.90;;;17.36;nan;101271.91;4993813;28;20642;-64
2022/10/29 01:04:04;;;;;;;8.70;5.00;;;16.80;99.90;;;17.36;nan;101277.19;5003035;28;20629;-65
2022/10/29 01:06:32;;;;;;;5.20;4.07;;;16.70;99.90;;;17.34;nan;101279.13;5019565;28;20677;-65
2022/10/29 01:08:59;;;;;;;9.63;3.80;;;16.70;99.90;;;17.34;nan;101272.06;5013208;28;20630;-64
2022/10/29 01:12:05;;;;;;;7.00;3.93;;;16.70;99.90;;;17.38;nan;101280.53;5013673;28;20628;-64
2022/10/29 01:15:06;;;;;;;8.93;4.30;;;16.80;99.90;;;17.28;nan;101279.69;5013501;28;20632;-65
2022/10/29 01:18:32;;;;;;;9.37;3.90;;;16.70;99.90;;;17.29;nan;101276.91;4995503;28;20661;-65
2022/10/29 01:21:33;;;;;;;8.30;3.90;;;16.70;99.90;;;17.00;nan;101276.06;4963173;28;20629;-65
2022/10/29 01:24:34;;;;;;;7.37;3.60;;;16.60;99.90;;;17.16;nan;101271.09;4976000;28;20703;-64
2022/10/29 01:27:58;;;;;;;9.13;3.90;;;16.60;99.90;;;17.08;nan;101267.47;4998982;28;20677;-65
2022/10/29 01:30:59;;;;;;;7.53;4.10;;;16.50;99.90;;;16.98;nan;101259.53;4996645;28;20625;-64
2022/10/29 01:34:18;;;;;;;8.33;3.87;;;16.50;99.90;;;16.88;nan;101264.81;4998340;28;20615;-64
2022/10/29 01:37:00;;;;;;;4.27;3.37;;;16.40;99.90;;;16.79;nan;101264.75;4965224;28;20670;-65
2022/10/29 01:39:41;;;;;;;7.20;4.23;;;16.30;99.90;;;16.73;nan;101260.03;5011448;28;20632;-64
2022/10/29 01:42:35;;;;;;;5.53;4.00;;;16.20;99.90;;;16.74;nan;101257.25;4994003;28;20982;-65
2022/10/29 01:45:32;;;;;;;11.57;4.90;;;16.20;99.90;;;16.73;nan;101268.78;4979352;28;20614;-64
2022/10/29 01:48:12;;;;;;;5.50;4.03;;;16.20;99.90;;;16.75;nan;101263.38;4988957;28;20633;-63
2022/10/29 01:50:44;;;;;;;7.23;3.57;;;16.20;99.90;;;16.73;nan;101260.88;4994784;28;20619;-67
2022/10/29 01:53:12;;;;;;;11.33;3.90;;;16.20;99.90;;;16.73;nan;101257.41;4991264;28;20641;-65
2022/10/29 01:55:39;;;;;;;14.03;4.10;;;16.20;99.90;;;16.69;nan;101251.56;5012106;28;20648;-64
2022/10/29 01:58:06;;;;;;;11.20;4.00;;;16.20;99.90;;;16.66;nan;101251.84;5001807;28;20642;-65
2022/10/29 02:00:54;;;;;;;6.03;3.47;;;16.10;99.90;;;16.67;nan;101258.78;5004147;28;20999;-65
2022/10/29 02:03:42;;;;;;;6.00;4.10;;;16.10;99.90;;;16.58;nan;101251.69;5012999;28;20640;-66
2022/10/29 02:06:21;;;;;;;6.97;4.23;;;16.10;99.90;;;16.54;nan;101241.53;5028199;28;20719;-65
2022/10/29 02:09:21;;;;;;;10.70;4.30;;;16.00;99.90;;;16.57;nan;101247.38;5010966;28;20605;-65
2022/10/29 02:12:13;;;;;;;9.60;3.70;;;16.00;99.90;;;16.49;nan;101241.91;4995533;28;20614;-65
2022/10/29 02:14:49;;;;;;;12.93;5.00;;;16.00;99.90;;;16.57;nan;101242.09;4994189;28;20625;-65
2022/10/29 02:17:16;;;;;;;5.50;3.33;;;16.00;99.90;;;16.64;nan;101232.69;5008367;28;20666;-65
2022/10/29 02:19:43;;;;;;;4.30;3.70;;;16.00;99.90;;;16.54;nan;101234.47;4993948;28;20617;-64
2022/10/29 02:22:10;;;;;;;4.80;3.63;;;16.00;99.90;;;16.39;nan;101227.03;5011887;28;20995;-65
2022/10/29 02:24:37;;;;;;;14.77;4.80;;;16.00;99.90;;;16.43;nan;101228.44;5012178;28;20621;-66
2022/10/29 02:27:04;;;;;;;7.80;3.50;;;16.00;99.90;;;16.41;nan;101235.63;5011564;28;20670;-65
2022/10/29 02:29:31;;;;;;;5.70;4.10;;;15.90;99.90;;;16.40;nan;101224.25;5011648;28;20664;-65
2022/10/29 02:31:57;;;;;;;9.33;4.70;;;16.00;99.90;;;16.45;nan;101235.22;5010231;28;20641;-67
2022/10/29 02:34:24;;;;;;;8.03;4.10;;;15.90;99.90;;;16.55;nan;101228.22;5021972;28;20629;-65
2022/10/29 02:36:51;;;;;;;6.73;3.53;;;16.00;99.90;;;16.38;nan;101234.09;5014091;28;20673;-66
2022/10/29 02:39:18;;;;;;;7.90;4.60;;;15.90;99.90;;;16.35;nan;101226.47;5011713;28;20633;-66
2022/10/29 02:41:45;;;;;;;5.10;3.47;;;15.90;99.90;;;16.46;nan;101221.09;5011104;28;20630;-64
2022/10/29 02:44:12;;;;;;;8.33;3.90;;;15.90;99.90;;;16.50;nan;101217.28;5011864;28;20649;-66
2022/10/29 02:46:39;;;;;;;6.80;3.90;;;16.00;99.90;;;16.51;nan;101213.66;5009695;28;20681;-65
2022/10/29 02:49:07;;;;;;;10.67;5.20;;;15.90;99.90;;;16.63;nan;101217.03;5010339;28;20622;-66
2022/10/29 02:51:33;;;;;;;7.77;5.00;;;16.00;99.90;;;16.56;nan;101223.78;5010598;28;20634;-65
2022/10/29 02:54:00;;;;;;;8.03;4.20;;;16.00;99.90;;;16.62;nan;101218.81;5011791;28;20699;-65
2022/10/29 02:56:27;;;;;;;6.30;4.27;;;16.00;99.90;;;16.58;nan;101225.34;5011575;28;20657;-65
2022/10/29 02:58:54;;;;;;;9.23;4.80;;;16.00;99.90;;;16.57;nan;101228.91;5011050;28;21133;-67
2022/10/29 03:01:21;;;;;;;6.40;4.10;;;16.00;99.90;;;16.57;nan;101226.28;5012634;28;20618;-65
2022/10/29 03:03:48;;;;;;;7.37;4.63;;;16.00;99.90;;;16.60;nan;101231.28;5013236;28;20649;-66
2022/10/29 03:06:18;;;;;;;6.77;4.50;;;16.00;99.90;;;16.57;nan;101233.38;5010825;28;20670;-65
2022/10/29 03:08:45;;;;;;;9.00;4.63;;;16.00;99.90;;;16.60;nan;101228.66;4992058;28;20624;-66
2022/10/29 03:11:12;;;;;;;7.33;4.57;;;16.00;99.90;;;16.49;nan;101223.47;5005999;28;20633;-65
2022/10/29 03:13:39;;;;;;;10.77;4.27;;;16.00;99.90;;;16.47;nan;101225.41;5006805;28;20639;-66
2022/10/29 03:16:06;;;;;;;7.43;4.60;;;16.00;99.90;;;16.53;nan;101224.03;4991102;28;20635;-65
2022/10/29 03:18:33;;;;;;;8.87;4.43;;;16.00;99.90;;;16.46;nan;101228.16;4991061;28;20615;-65
2022/10/29 03:21:00;;;;;;;10.17;4.60;;;15.90;99.90;;;16.53;nan;101224.03;5011341;28;20626;-65
2022/10/29 03:23:27;;;;;;;14.00;5.40;;;15.90;99.90;;;16.49;nan;101218.19;4993380;28;20626;-66
2022/10/29 03:25:55;;;;;;;6.10;4.47;;;15.90;99.90;;;16.48;nan;101211.28;5010581;28;20670;-65
2022/10/29 03:28:26;;;;;;;10.30;4.57;;;15.90;99.90;;;16.42;nan;101219.69;5010574;28;20634;-66
2022/10/29 03:30:53;;;;;;;8.40;4.93;;;15.90;99.90;;;16.49;nan;101212.94;4993791;28;20634;-65
2022/10/29 03:33:20;;;;;;;6.77;4.07;;;15.90;99.90;;;16.53;nan;101218.78;5012153;28;20632;-65
2022/10/29 03:35:47;;;;;;;8.83;3.87;;;15.90;99.90;;;16.54;nan;101216.03;5014944;28;20743;-67
2022/10/29 03:38:14;;;;;;;6.43;4.30;;;15.90;99.90;;;16.47;nan;101211.38;4974422;28;20630;-65
2022/10/29 03:40:42;;;;;;;9.00;4.43;;;15.90;99.90;;;16.48;nan;101213.06;5010279;28;20634;-65
2022/10/29 03:43:09;;;;;;;4.90;4.00;;;15.90;99.90;;;16.46;nan;101221.09;5011258;28;20624;-66
2022/10/29 03:45:36;;;;;;;11.40;4.10;;;15.90;99.90;;;16.45;nan;101222.06;5009096;28;20638;-65
2022/10/29 03:48:04;;;;;;;7.00;4.10;;;15.90;99.90;;;16.46;nan;101217.63;5002282;28;20642;-65
2022/10/29 03:50:31;;;;;;;8.37;3.70;;;15.90;99.90;;;16.50;nan;101225.19;5009653;28;20910;-65
2022/10/29 03:52:58;;;;;;;9.83;4.60;;;15.90;99.90;;;16.62;nan;101241.69;5010947;28;20633;-66
2022/10/29 03:55:27;;;;;;;7.57;4.20;;;15.90;99.90;;;16.59;nan;101237.53;4992799;28;20716;-65
2022/10/29 03:57:55;;;;;;;6.50;3.50;;;16.00;99.90;;;16.57;nan;101228.91;5011335;28;21205;-65
2022/10/29 04:00:22;;;;;;;5.47;3.47;;;15.90;99.90;;;16.54;nan;101237.09;5010344;28;20625;-65
2022/10/29 04:02:49;;;;;;;10.63;3.80;;;16.00;99.90;;;16.54;nan;101231.00;5010140;28;20999;-64
2022/10/29 04:05:16;;;;;;;8.50;3.40;;;16.00;99.90;;;16.46;nan;101234.25;5017254;28;20993;-65
2022/10/29 04:07:43;;;;;;;6.57;4.10;;;15.90;99.90;;;16.42;nan;101226.78;5007165;28;20669;-65
2022/10/29 04:10:10;;;;;;;9.87;4.40;;;15.90;99.90;;;16.19;nan;101226.09;5013520;28;20637;-66
2022/10/29 04:12:37;;;;;;;6.27;3.63;;;15.80;99.90;;;16.25;nan;101220.31;5014560;28;20613;-65
2022/10/29 04:15:04;;;;;;;5.03;3.30;;;15.80;99.90;;;16.27;nan;101223.63;5014258;28;20637;-65
2022/10/29 04:17:31;;;;;;;8.10;4.10;;;15.80;99.90;;;16.27;nan;101223.63;5014993;28;21034;-65
2022/10/29 04:19:58;;;;;;;5.20;3.43;;;15.80;99.90;;;16.27;nan;101213.09;5014500;28;20995;-65
2022/10/29 04:22:25;;;;;;;5.80;3.47;;;15.80;99.90;;;16.44;nan;101217.75;5013319;28;20633;-65
2022/10/29 04:25:12;;;;;;;9.27;3.90;;;15.80;99.90;;;16.49;nan;101215.56;5006305;28;20645;-67
2022/10/29 04:27:59;;;;;;;5.03;3.60;;;15.90;99.90;;;16.47;nan;101225.41;5014278;28;21101;-64
2022/10/29 04:30:46;;;;;;;4.80;3.30;;;15.90;99.90;;;16.47;nan;101214.03;5013473;28;20724;-65
2022/10/29 04:33:12;;;;;;;7.90;3.80;;;15.90;99.90;;;16.43;nan;101220.53;5014705;28;21208;-65
2022/10/29 04:35:39;;;;;;;7.90;4.37;;;15.90;99.90;;;16.51;nan;101220.72;5021233;28;21012;-64
2022/10/29 04:38:11;;;;;;;5.97;4.50;;;15.90;99.90;;;16.54;nan;101218.66;5013221;28;20630;-65
2022/10/29 04:40:38;;;;;;;10.13;4.17;;;15.90;99.90;;;16.55;nan;101222.94;4995480;28;20636;-64
2022/10/29 04:43:05;;;;;;;5.17;3.80;;;15.90;99.90;;;16.47;nan;101227.19;5014748;28;20628;-65
2022/10/29 04:45:32;;;;;;;9.80;4.40;;;15.90;99.90;;;16.61;nan;101222.41;5012795;28;21189;-64
2022/10/29 04:48:03;;;;;;;6.30;4.03;;;16.00;99.90;;;16.58;nan;101227.13;5013295;28;20673;-62
2022/10/29 04:50:33;;;;;;;9.10;4.17;;;16.00;99.90;;;16.56;nan;101219.38;4995745;28;20644;-63
2022/10/29 04:53:01;;;;;;;8.37;4.30;;;16.00;99.90;;;16.62;nan;101226.72;4995621;28;20636;-64
2022/10/29 04:55:29;;;;;;;7.07;4.10;;;16.00;99.90;;;16.59;nan;101224.34;5013807;28;20621;-66
2022/10/29 04:57:56;;;;;;;7.37;4.00;;;16.00;99.90;;;16.37;nan;101223.69;4996013;28;21019;-65
2022/10/29 05:00:23;;;;;;;6.17;3.60;;;16.00;99.90;;;16.38;nan;101206.91;5012316;28;20648;-65
2022/10/29 05:02:51;;;;;;;5.33;3.30;;;16.00;99.90;;;16.47;nan;101214.84;5012636;28;20625;-65
2022/10/29 05:05:20;;;;;;;10.37;3.90;;;15.90;99.90;;;16.32;nan;101205.66;5020845;28;21016;-66
2022/10/29 05:07:47;;;;;;;9.20;3.87;;;15.90;99.90;;;16.48;nan;101205.16;4994480;28;20674;-66
2022/10/29 05:10:14;;;;;;;4.53;3.90;;;15.90;99.90;;;16.56;nan;101205.34;5012579;28;20632;-64
2022/10/29 05:12:41;;;;;;;8.47;4.60;;;16.00;99.90;;;16.53;nan;101208.25;5012335;28;20640;-65
2022/10/29 05:15:09;;;;;;;6.43;3.67;;;16.00;99.90;;;16.45;nan;101203.63;5012594;28;20995;-64
2022/10/29 05:17:37;;;;;;;13.30;3.70;;;16.00;99.90;;;16.72;nan;101203.00;5012148;28;20656;-65
2022/10/29 05:20:05;;;;;;;9.10;4.37;;;16.00;99.90;;;16.72;nan;101208.28;5014064;28;20637;-65
2022/10/29 05:22:32;;;;;;;5.90;3.90;;;16.10;99.90;;;16.71;nan;101207.47;5012509;28;20704;-65
2022/10/29 05:24:59;;;;;;;8.47;3.67;;;16.10;99.90;;;16.80;nan;101205.84;5013495;28;20629;-66
2022/10/29 05:27:26;;;;;;;8.17;3.80;;;16.10;99.90;;;16.79;nan;101206.78;5012738;28;20669;-65
2022/10/29 05:29:53;;;;;;;9.40;5.27;;;16.20;99.90;;;16.74;nan;101206.34;5013190;28;20694;-65
2022/10/29 05:32:20;;;;;;;5.67;4.23;;;16.10;99.90;;;16.78;nan;101203.31;5013313;28;20637;-65
2022/10/29 05:34:46;;;;;;;8.30;4.90;;;16.20;99.90;;;16.73;nan;101208.19;5022160;28;20634;-65
2022/10/29 05:37:13;;;;;;;12.60;5.27;;;16.10;99.90;;;16.72;nan;101209.13;5010848;28;21302;-65
2022/10/29 05:39:40;;;;;;;9.93;5.10;;;16.10;99.90;;;16.74;nan;101206.34;5006016;28;20649;-65
2022/10/29 05:42:07;;;;;;;6.03;4.20;;;16.10;99.90;;;16.83;nan;101209.03;5011695;28;20692;-65
2022/10/29 05:44:34;;;;;;;9.30;3.97;;;16.10;99.90;;;16.79;nan;101205.00;5012501;28;20644;-65
2022/10/29 05:47:02;;;;;;;9.00;4.73;;;16.10;99.90;;;16.77;nan;101206.09;5010787;28;20968;-65
2022/10/29 05:49:29;;;;;;;9.73;4.60;;;16.10;99.90;;;16.81;nan;101207.47;4993382;28;20637;-64
2022/10/29 05:51:56;;;;;;;7.57;4.47;;;16.10;99.90;;;16.82;nan;101212.59;5001460;28;20638;-66
2022/10/29 05:54:23;;;;;;;13.43;4.20;;;16.10;99.90;;;16.77;nan;101212.19;5004159;28;20644;-65
2022/10/29 05:56:50;;;;;;;7.33;4.33;;;16.10;99.90;;;16.74;nan;101212.47;5012186;28;20707;-65
2022/10/29 05:59:17;;;;;;;5.20;4.07;;;16.10;99.90;;;16.72;nan;101209.13;5011635;28;20691;-65
2022/10/29 06:01:43;;;;;;;5.60;3.70;;;16.10;99.90;;;16.73;nan;101204.69;5012628;28;20626;-65
2022/10/29 06:04:11;;;;;;;5.77;3.13;;;16.10;99.90;;;16.47;nan;101209.59;5014008;28;20641;-65
2022/10/29 06:06:37;;;;;;;6.80;3.10;;;16.00;99.90;;;16.31;nan;101210.09;5000588;28;20671;-65
2022/10/29 06:09:04;;;;;;;5.77;2.67;;;15.90;99.90;;;16.24;nan;101218.66;5007262;28;20627;-66
2022/10/29 06:11:31;;;;;;;4.90;4.10;;;15.90;99.90;;;16.17;nan;101212.25;5004831;28;20634;-64
2022/10/29 06:13:58;;;;;;;7.80;3.87;;;15.80;99.90;;;16.23;nan;101219.59;5023080;28;20630;-64
2022/10/29 06:16:25;;;;;;;9.63;3.50;;;15.70;99.90;;;16.07;nan;101214.00;5012232;28;20661;-65
2022/10/29 06:18:52;;;;;;;5.27;4.03;;;15.70;99.90;;;15.89;nan;101215.56;5012229;28;20628;-65
2022/10/29 06:21:19;;;;;;;4.93;3.60;;;15.60;99.90;;;15.97;nan;101213.94;5024977;28;20764;-67
2022/10/29 06:23:46;;;;;;;5.57;3.73;;;15.60;99.90;;;15.88;nan;101217.38;5008031;28;20636;-65
2022/10/29 06:26:13;;;;;;;8.17;3.50;;;15.50;99.90;;;15.88;nan;101222.66;5010998;28;20683;-64
2022/10/29 06:28:40;;;;;;;5.33;3.90;;;15.40;99.90;;;15.87;nan;101213.06;5008594;28;20699;-65
2022/10/29 06:31:07;;;;;;;5.20;3.67;;;15.40;99.90;;;15.86;nan;101213.19;5010982;28;20602;-66
2022/10/29 06:33:34;;;;;;;6.90;3.27;;;15.40;99.90;;;15.87;nan;101214.84;5010120;28;20638;-65
2022/10/29 06:36:01;;;;;;;5.10;3.50;;;15.40;99.90;;;15.83;nan;101214.28;5011321;28;20657;-67
2022/10/29 06:38:28;;;;;;;13.40;3.70;;;15.40;99.90;;;15.89;nan;101215.56;4987082;28;21128;-64
2022/10/29 06:40:55;;;;;;;4.67;2.70;;;15.40;99.90;;;16.08;nan;101213.03;5001551;28;20626;-65
2022/10/29 06:43:22;;;;;;;5.93;3.30;;;15.50;99.90;;;15.90;nan;101209.34;5009016;28;20672;-65
2022/10/29 06:45:49;;;;;;;4.50;3.37;;;15.50;99.90;;;15.83;nan;101213.44;5008675;28;20669;-64
2022/10/29 06:48:16;;;;;;;6.57;3.70;;;15.40;99.90;;;15.74;nan;101217.69;5007059;28;20661;-65
2022/10/29 06:50:47;;;;;;;4.97;3.20;;;15.40;99.90;;;15.87;nan;101222.75;5008809;28;20627;-65
2022/10/29 06:53:15;;;;;;;4.90;2.50;;;15.40;99.90;;;15.92;nan;101223.22;5009403;28;21211;-66
2022/10/29 06:55:41;;;;;;;6.83;3.40;;;15.40;99.90;;;16.01;nan;101222.44;5023381;28;20640;-66
2022/10/29 06:58:14;;;;;;;6.47;3.80;;;15.50;99.90;;;16.11;nan;101223.31;5008042;28;20658;-64
2022/10/29 07:00:42;;;;;;;5.43;3.90;;;15.50;99.90;;;16.03;nan;101220.50;5008042;28;20616;-66
2022/10/29 07:03:21;;;;;;;4.80;3.20;;;15.50;99.90;;;15.98;nan;101225.31;5010290;28;20646;-65
2022/10/29 07:05:59;;;;;;;7.20;3.80;;;15.50;99.90;;;16.14;nan;101225.69;4994079;28;21307;-65
2022/10/29 07:08:27;;;;;;;5.17;3.20;;;15.60;99.90;;;16.10;nan;101238.25;5008087;28;20669;-67
2022/10/29 07:10:54;;;;;;;6.17;3.77;;;15.60;99.90;;;16.00;nan;101233.91;4994107;28;20693;-66
2022/10/29 07:13:22;;;;;;;8.20;4.33;;;15.60;99.90;;;16.25;nan;101228.22;5010756;28;20647;-65
2022/10/29 07:15:48;;;;;;;8.80;3.20;;;15.60;99.90;;;16.27;nan;101234.19;5002546;28;20661;-66
2022/10/29 07:18:15;;;;;;;9.83;3.93;;;15.70;99.90;;;16.29;nan;101237.53;5007442;28;20617;-66
2022/10/29 07:20:44;;;;;;;7.33;3.80;;;15.70;99.90;;;16.17;nan;101236.78;5010309;28;20981;-66
2022/10/29 07:23:12;;;;;;;4.90;3.00;;;15.70;99.90;;;16.12;nan;101241.59;5009546;28;20638;-67
2022/10/29 07:25:40;;;;;;;6.60;3.63;;;15.70;99.90;;;15.99;nan;101242.78;5028275;28;21104;-65
2022/10/29 07:28:15;;;;;;;4.70;4.10;;;15.60;99.90;;;16.11;nan;101249.63;5000195;28;21457;-65
2022/10/29 07:30:44;;;;;;;4.97;3.70;;;15.60;99.90;;;16.30;nan;101236.56;4973570;28;20606;-66
2022/10/29 07:33:11;;;;;;;6.87;4.10;;;15.70;99.90;;;16.11;nan;101239.09;5004903;28;20649;-65
2022/10/29 07:35:38;;;;;;;10.90;4.40;;;15.70;99.90;;;16.23;nan;101236.25;5009662;28;20978;-66
2022/10/29 07:38:06;;;;;;;15.23;4.20;;;15.70;99.90;;;16.49;nan;101243.69;4990573;28;20646;-66
2022/10/29 07:40:47;;;;;;;6.63;4.27;;;15.90;99.90;;;16.24;nan;101252.88;5005391;28;20681;-66
2022/10/29 07:43:15;;;;;;;5.30;3.80;;;15.90;99.90;;;16.50;nan;101254.16;5030661;28;20608;-65
2022/10/29 07:45:45;;;;;;;11.37;4.20;;;15.90;99.90;;;16.56;nan;101256.25;5031411;28;20623;-65
2022/10/29 07:48:12;;;;;;;8.33;4.23;;;16.00;99.90;;;16.89;nan;101255.06;5010144;28;20666;-65
2022/10/29 07:50:39;;;;;;;3.93;3.27;;;16.10;99.90;;;16.87;nan;101254.38;5009859;28;20618;-65
2022/10/29 07:53:07;;;;;;;8.80;3.33;;;16.20;99.90;;;17.04;nan;101257.19;4997976;28;20635;-66
2022/10/29 07:55:34;;;;;;;6.60;3.50;;;16.30;99.90;;;16.96;nan;101254.41;5026102;28;20624;-65
2022/10/29 07:58:08;;;;;;;3.73;2.57;;;16.40;99.90;;;16.89;nan;101248.00;5029972;28;21216;-64
2022/10/29 08:00:38;;;;;;;6.00;4.00;;;16.40;99.90;;;16.85;nan;101246.63;4998328;28;20675;-65
2022/10/29 08:03:06;;;;;;;4.47;2.53;;;16.40;99.90;;;16.70;nan;101252.38;5010068;28;20622;-66
2022/10/29 08:05:34;;;;;;;6.40;3.63;;;16.30;99.90;;;16.86;nan;101252.72;5008541;28;21054;-66
2022/10/29 08:08:01;;;;;;;7.03;3.87;;;16.40;99.90;;;16.93;nan;101246.75;5009575;28;20716;-65
2022/10/29 08:10:29;;;;;;;8.30;4.43;;;16.40;99.90;;;16.96;nan;101253.56;5010127;28;20972;-65
2022/10/29 08:13:00;;;;;;;6.00;3.10;;;16.50;99.90;;;17.08;nan;101252.47;4993980;28;21254;-65
2022/10/29 08:15:30;;;;;;;5.57;3.40;;;16.50;99.90;;;17.06;nan;101259.69;5006483;28;20633;-66
2022/10/29 08:17:57;;;;;;;14.67;4.30;;;16.50;99.90;;;17.18;nan;101257.75;4991029;28;20667;-67
2022/10/29 08:20:27;;;;;;;4.17;3.00;;;16.60;99.90;;;17.51;nan;101260.00;4997966;28;20634;-66
2022/10/29 08:22:57;;;;;;;6.67;4.33;;;16.80;99.90;;;17.73;nan;101259.72;4991225;28;21195;-65
2022/10/29 08:25:25;;;;;;;5.30;3.77;;;16.90;99.90;;;17.88;nan;101263.59;5015837;28;20624;-65
2022/10/29 08:28:01;;;;;;;8.97;4.43;;;17.00;99.90;;;18.09;nan;101260.75;4991223;28;20666;-71
2022/10/29 08:30:29;;;;;;;12.10;4.00;;;17.20;99.90;;;18.27;nan;101259.88;4988323;28;20630;-64
2022/10/29 08:32:56;;;;;;;22.53;11.63;;;17.40;99.90;;;18.34;nan;101250.41;4999793;28;20621;-64
2022/10/29 08:35:24;;;;;;;15.23;8.03;;;17.50;99.90;;;18.16;nan;101260.06;5000173;28;20637;-64
2022/10/29 08:37:51;;;;;;;10.43;4.00;;;17.50;99.90;;;18.15;nan;101268.13;5000897;28;20666;-65
2022/10/29 08:40:40;;;;;;;7.77;3.83;;;17.50;99.90;;;18.28;nan;101261.53;5003426;28;20719;-68
2022/10/29 08:43:41;;;;;;;7.80;4.23;;;17.50;99.90;;;18.26;nan;101257.38;4997381;28;21550;-68
2022/10/29 08:46:29;;;;;;;11.67;3.80;;;17.50;99.90;;;18.09;nan;101251.03;5003060;28;21015;-69
2022/10/29 08:49:02;;;;;;;6.80;3.13;;;17.60;99.90;;;18.22;nan;101253.38;4988881;28;20658;-67
2022/10/29 08:51:40;;;;;;;6.63;4.10;;;17.60;99.90;;;18.34;nan;101250.41;5008541;28;21010;-70
2022/10/29 08:54:13;;;;;;;8.83;4.87;;;17.70;99.90;;;18.58;nan;101255.19;4979034;28;20687;-70
2022/10/29 08:57:13;;;;;;;15.93;4.60;;;17.80;99.90;;;18.60;nan;101255.88;4994941;28;20689;-69
2022/10/29 09:00:01;;;;;;;6.50;4.27;;;17.90;99.90;;;18.96;nan;101262.91;4990038;28;20644;-67
2022/10/29 09:02:29;;;;;;;7.20;4.00;;;18.00;99.90;;;19.13;nan;101262.09;5009778;28;20720;-69
2022/10/29 09:04:57;;;;;;;8.27;4.10;;;18.20;99.90;;;19.45;nan;101264.25;5006147;28;20612;-69
2022/10/29 09:08:09;;;;;;;9.50;4.17;;;18.40;99.90;;;19.63;nan;101267.72;5008150;28;20673;-68
2022/10/29 09:11:03;;;;;;;9.00;4.60;;;18.60;99.90;;;19.54;nan;101267.78;4992540;28;20638;-67
2022/10/29 09:13:57;;;;;;;9.87;4.53;;;19.00;99.90;;;19.86;nan;101263.59;5010999;28;20620;-65
2022/10/29 09:16:33;;;;;;;8.67;4.50;;;19.00;99.90;;;21.22;nan;101267.91;5009750;28;20727;-65
2022/10/29 09:19:17;;;;;;;11.50;4.40;;;19.60;99.90;;;24.05;nan;101265.78;4988858;28;20629;-66
2022/10/29 09:22:11;;;;;;;12.47;4.67;;;20.90;99.90;;;26.67;nan;101257.72;5003865;28;20613;-66
2022/10/29 09:24:51;;;;;;;14.73;4.97;;;22.70;99.90;;;29.85;nan;101261.00;5006371;28;20648;-67
2022/10/29 09:27:50;;;;;;;10.27;4.20;;;24.90;99.90;;;31.38;nan;101258.72;4995392;28;20673;-69
2022/10/29 09:30:18;;;;;;;8.30;4.80;;;27.00;99.90;;;32.73;nan;101271.03;4982325;28;20640;-67
2022/10/29 09:33:13;;;;;;;15.63;5.27;;;28.30;98.00;;;36.14;nan;101270.41;4992185;28;20695;-65
2022/10/29 09:35:53;;;;;;;10.13;4.87;;;30.20;93.90;;;36.78;nan;101265.50;4993527;28;20625;-67
2022/10/29 09:38:31;;;;;;;4.30;3.80;;;31.50;89.40;;;34.89;nan;101253.84;5003315;28;20931;-67
2022/10/29 09:41:01;;;;;;;11.97;4.93;;;31.40;83.40;;;36.47;nan;101252.91;4982614;28;20924;-67
2022/10/29 09:43:43;;;;;;;6.50;3.90;;;31.80;81.90;;;37.32;nan;101249.56;4992211;28;20627;-67
2022/10/29 09:46:43;;;;;;;8.10;4.27;;;32.80;76.50;;;37.77;nan;101244.13;5012573;28;20675;-67
2022/10/29 09:49:58;;;;;;;6.00;4.27;;;33.50;72.80;;;37.19;nan;101225.63;4986857;28;20654;-67
2022/10/29 09:52:35;;;;;;;7.13;4.20;;;33.50;69.80;;;37.36;nan;101228.91;5003847;28;20646;-67
2022/10/29 09:55:06;;;;;;;6.20;4.03;;;33.80;67.50;;;36.50;nan;101222.50;5024446;28;20697;-68
2022/10/29 09:57:35;;;;;;;12.60;3.87;;;33.80;66.50;;;37.34;nan;101225.66;4999782;23;20706;-68
2022/10/29 10:00:26;;;;;;;7.10;3.93;;;33.60;66.20;;;38.17;nan;101234.22;4979380;28;20626;-68
2022/10/29 10:03:11;;;;;;;7.07;4.00;;;33.90;65.90;;;37.26;nan;101212.56;4976788;28;20634;-70
2022/10/29 10:06:10;;;;;;;6.43;3.60;;;33.70;64.30;;;36.35;nan;101209.66;5007444;28;21219;-68
2022/10/29 10:09:03;;;;;;;5.00;3.70;;;33.50;63.30;;;38.02;nan;101214.09;4975721;28;20701;-69
2022/10/29 10:11:39;;;;;;;5.47;3.33;;;34.00;63.20;;;38.08;nan;101200.47;4976080;28;20627;-64
2022/10/29 10:14:21;;;;;;;7.83;4.20;;;34.40;61.40;;;36.39;nan;101196.34;4960204;28;21064;-65
2022/10/29 10:16:59;;;;;;;9.73;4.13;;;33.80;61.50;;;36.15;nan;101187.81;4993212;28;21085;-70
2022/10/29 10:19:30;;;;;;;8.73;3.57;;;33.40;61.50;;;35.95;nan;101179.56;4976204;28;20657;-64
2022/10/29 10:22:03;;;;;;;8.97;3.60;;;33.20;61.90;;;33.10;nan;101163.34;4993898;28;20690;-63
2022/10/29 10:24:35;;;;;;;13.00;4.20;;;31.80;63.60;;;30.17;nan;101173.75;4984469;28;21061;-64
2022/10/29 10:27:28;;;;;;;10.10;3.97;;;29.90;65.80;;;29.39;nan;101164.56;4962901;28;20674;-64
2022/10/29 10:30:04;;;;;;;5.73;3.57;;;28.50;69.40;;;28.26;nan;101161.97;4976058;28;21195;-63
2022/10/29 10:32:31;;;;;;;5.03;3.37;;;27.50;71.90;;;26.93;nan;101158.78;4976282;28;21064;-64
2022/10/29 10:34:58;;;;;;;5.70;3.27;;;26.50;73.60;;;25.18;nan;101160.25;4975967;28;20634;-66
2022/10/29 10:37:30;;;;;;;9.70;4.23;;;25.30;75.70;;;24.88;nan;101164.88;4993127;28;20665;-65
2022/10/29 10:40:03;;;;;;;11.37;3.57;;;24.60;78.90;;;24.53;nan;101161.19;4975494;28;20631;-65
2022/10/29 10:42:35;;;;;;;12.30;3.60;;;24.10;81.30;;;24.34;nan;101168.97;4979651;28;20641;-64
2022/10/29 10:45:16;;;;;;;10.90;3.40;;;23.80;83.50;;;24.16;nan;101160.53;4974788;28;20635;-65
2022/10/29 10:47:49;;;;;;;7.93;3.53;;;23.60;85.80;;;24.16;nan;101163.19;4974221;28;20677;-64
2022/10/29 10:50:32;;;;;;;8.53;3.13;;;23.30;87.90;;;23.78;nan;101159.78;4974717;28;20619;-64